sensor_id;sensor_type;location;lat;lon;timestamp;P1;durP1;ratioP1;P2;durP2;ratioP2
75820;SDS011;64454;51.984;9.838;2023-09-18T00:02:18;4.72;;;4.22;;
75820;SDS011;64454;51.984;9.838;2023-09-18T00:04:45;5.22;;;4.10;;
75820;SDS011;64454;51.984;9.838;2023-09-18T00:07:14;4.78;;;3.63;;
75820;SDS011;64454;51.984;9.838;2023-09-18T00:09:41;4.55;;;4.10;;
75820;SDS011;64454;51.984;9.838;2023-09-18T00:12:08;5.63;;;4.50;;
75820;SDS011;64454;51.984;9.838;2023-09-18T00:14:35;4.68;;;3.70;;
75820;SDS011;64454;51.984;9.838;2023-09-18T00:17:02;3.92;;;3.40;;
75820;SDS011;64454;51.984;9.838;2023-09-18T00:19:29;4.38;;;3.80;;
75820;SDS011;64454;51.984;9.838;2023-09-18T00:21:58;4.97;;;4.03;;
75820;SDS011;64454;51.984;9.838;2023-09-18T00:24:27;3.90;;;3.50;;
75820;SDS011;64454;51.984;9.838;2023-09-18T00:26:54;4.80;;;3.90;;
75820;SDS011;64454;51.984;9.838;2023-09-18T00:29:21;7.35;;;4.85;;
75820;SDS011;64454;51.984;9.838;2023-09-18T00:31:48;4.80;;;4.10;;
75820;SDS011;64454;51.984;9.838;2023-09-18T00:34:16;6.70;;;4.30;;
75820;SDS011;64454;51.984;9.838;2023-09-18T00:36:45;4.93;;;4.43;;
75820;SDS011;64454;51.984;9.838;2023-09-18T00:39:12;4.40;;;4.00;;
75820;SDS011;64454;51.984;9.838;2023-09-18T00:41:42;4.25;;;3.85;;
75820;SDS011;64454;51.984;9.838;2023-09-18T00:44:14;4.35;;;3.95;;
75820;SDS011;64454;51.984;9.838;2023-09-18T00:46:44;4.45;;;3.90;;
75820;SDS011;64454;51.984;9.838;2023-09-18T00:49:11;6.78;;;4.63;;
75820;SDS011;64454;51.984;9.838;2023-09-18T00:51:40;5.50;;;3.90;;
75820;SDS011;64454;51.984;9.838;2023-09-18T00:54:07;5.10;;;4.60;;
75820;SDS011;64454;51.984;9.838;2023-09-18T00:56:36;5.30;;;4.60;;
75820;SDS011;64454;51.984;9.838;2023-09-18T00:59:04;5.03;;;4.20;;
75820;SDS011;64454;51.984;9.838;2023-09-18T01:01:32;4.97;;;3.80;;
75820;SDS011;64454;51.984;9.838;2023-09-18T01:03:59;5.20;;;4.40;;
75820;SDS011;64454;51.984;9.838;2023-09-18T01:06:26;4.60;;;4.10;;
75820;SDS011;64454;51.984;9.838;2023-09-18T01:08:55;6.93;;;4.43;;
75820;SDS011;64454;51.984;9.838;2023-09-18T01:11:26;6.20;;;4.10;;
75820;SDS011;64454;51.984;9.838;2023-09-18T01:14:04;5.43;;;4.40;;
75820;SDS011;64454;51.984;9.838;2023-09-18T01:16:41;6.35;;;4.65;;
75820;SDS011;64454;51.984;9.838;2023-09-18T01:19:34;4.85;;;4.35;;
75820;SDS011;64454;51.984;9.838;2023-09-18T01:22:06;5.60;;;4.07;;
75820;SDS011;64454;51.984;9.838;2023-09-18T01:24:36;5.47;;;4.87;;
75820;SDS011;64454;51.984;9.838;2023-09-18T01:27:07;7.80;;;4.53;;
75820;SDS011;64454;51.984;9.838;2023-09-18T01:29:36;4.68;;;4.20;;
75820;SDS011;64454;51.984;9.838;2023-09-18T01:32:03;4.75;;;3.90;;
75820;SDS011;64454;51.984;9.838;2023-09-18T01:34:32;4.95;;;4.40;;
75820;SDS011;64454;51.984;9.838;2023-09-18T01:37:03;4.32;;;3.92;;
75820;SDS011;64454;51.984;9.838;2023-09-18T01:39:32;4.38;;;3.97;;
75820;SDS011;64454;51.984;9.838;2023-09-18T01:42:02;5.05;;;4.00;;
75820;SDS011;64454;51.984;9.838;2023-09-18T01:44:31;6.20;;;4.47;;
75820;SDS011;64454;51.984;9.838;2023-09-18T01:46:59;5.07;;;4.38;;
75820;SDS011;64454;51.984;9.838;2023-09-18T01:49:31;5.75;;;3.92;;
75820;SDS011;64454;51.984;9.838;2023-09-18T01:52:00;5.47;;;4.40;;
75820;SDS011;64454;51.984;9.838;2023-09-18T01:54:27;6.20;;;4.40;;
75820;SDS011;64454;51.984;9.838;2023-09-18T01:56:56;4.40;;;3.93;;
75820;SDS011;64454;51.984;9.838;2023-09-18T01:59:23;6.10;;;4.60;;
75820;SDS011;64454;51.984;9.838;2023-09-18T02:01:50;4.60;;;4.13;;
75820;SDS011;64454;51.984;9.838;2023-09-18T02:04:19;5.70;;;4.30;;
75820;SDS011;64454;51.984;9.838;2023-09-18T02:06:47;5.63;;;4.70;;
75820;SDS011;64454;51.984;9.838;2023-09-18T02:09:17;6.53;;;4.35;;
75820;SDS011;64454;51.984;9.838;2023-09-18T02:11:47;6.28;;;4.43;;
75820;SDS011;64454;51.984;9.838;2023-09-18T02:14:16;4.72;;;4.25;;
75820;SDS011;64454;51.984;9.838;2023-09-18T02:16:45;4.28;;;3.88;;
75820;SDS011;64454;51.984;9.838;2023-09-18T02:19:14;6.10;;;4.65;;
75820;SDS011;64454;51.984;9.838;2023-09-18T02:21:45;5.05;;;4.50;;
75820;SDS011;64454;51.984;9.838;2023-09-18T02:24:12;6.32;;;4.50;;
75820;SDS011;64454;51.984;9.838;2023-09-18T02:26:41;6.07;;;4.68;;
75820;SDS011;64454;51.984;9.838;2023-09-18T02:29:10;4.53;;;3.83;;
75820;SDS011;64454;51.984;9.838;2023-09-18T02:31:40;5.88;;;4.60;;
75820;SDS011;64454;51.984;9.838;2023-09-18T02:34:07;5.77;;;4.40;;
75820;SDS011;64454;51.984;9.838;2023-09-18T02:36:35;5.38;;;4.75;;
75820;SDS011;64454;51.984;9.838;2023-09-18T02:39:02;5.45;;;4.43;;
75820;SDS011;64454;51.984;9.838;2023-09-18T02:41:29;6.40;;;4.83;;
75820;SDS011;64454;51.984;9.838;2023-09-18T02:43:56;4.90;;;4.30;;
75820;SDS011;64454;51.984;9.838;2023-09-18T02:46:23;5.18;;;4.68;;
75820;SDS011;64454;51.984;9.838;2023-09-18T02:48:51;4.72;;;4.22;;
75820;SDS011;64454;51.984;9.838;2023-09-18T02:51:18;5.57;;;5.03;;
75820;SDS011;64454;51.984;9.838;2023-09-18T02:53:45;5.45;;;4.63;;
75820;SDS011;64454;51.984;9.838;2023-09-18T02:56:12;5.00;;;4.50;;
75820;SDS011;64454;51.984;9.838;2023-09-18T02:58:40;4.50;;;4.10;;
75820;SDS011;64454;51.984;9.838;2023-09-18T03:01:07;7.40;;;5.22;;
75820;SDS011;64454;51.984;9.838;2023-09-18T03:03:34;4.50;;;3.95;;
75820;SDS011;64454;51.984;9.838;2023-09-18T03:06:02;7.45;;;4.75;;
75820;SDS011;64454;51.984;9.838;2023-09-18T03:08:31;8.05;;;5.28;;
75820;SDS011;64454;51.984;9.838;2023-09-18T03:11:00;6.38;;;4.82;;
75820;SDS011;64454;51.984;9.838;2023-09-18T03:13:28;5.20;;;4.70;;
75820;SDS011;64454;51.984;9.838;2023-09-18T03:15:56;6.30;;;4.90;;
75820;SDS011;64454;51.984;9.838;2023-09-18T03:18:23;6.40;;;5.10;;
75820;SDS011;64454;51.984;9.838;2023-09-18T03:20:50;5.63;;;4.75;;
75820;SDS011;64454;51.984;9.838;2023-09-18T03:23:18;5.85;;;4.78;;
75820;SDS011;64454;51.984;9.838;2023-09-18T03:25:45;6.13;;;4.82;;
75820;SDS011;64454;51.984;9.838;2023-09-18T03:28:12;4.83;;;4.33;;
75820;SDS011;64454;51.984;9.838;2023-09-18T03:30:39;5.13;;;4.63;;
75820;SDS011;64454;51.984;9.838;2023-09-18T03:33:06;6.40;;;5.70;;
75820;SDS011;64454;51.984;9.838;2023-09-18T03:35:36;5.70;;;4.82;;
75820;SDS011;64454;51.984;9.838;2023-09-18T03:38:13;4.93;;;4.43;;
75820;SDS011;64454;51.984;9.838;2023-09-18T03:40:41;6.10;;;4.50;;
75820;SDS011;64454;51.984;9.838;2023-09-18T03:43:09;4.87;;;4.40;;
75820;SDS011;64454;51.984;9.838;2023-09-18T03:45:37;5.00;;;4.50;;
75820;SDS011;64454;51.984;9.838;2023-09-18T03:48:05;5.15;;;4.65;;
75820;SDS011;64454;51.984;9.838;2023-09-18T03:50:32;4.80;;;4.40;;
75820;SDS011;64454;51.984;9.838;2023-09-18T03:52:59;6.35;;;4.45;;
75820;SDS011;64454;51.984;9.838;2023-09-18T03:55:26;5.35;;;4.85;;
75820;SDS011;64454;51.984;9.838;2023-09-18T03:57:54;4.88;;;4.38;;
75820;SDS011;64454;51.984;9.838;2023-09-18T04:00:21;5.50;;;5.00;;
75820;SDS011;64454;51.984;9.838;2023-09-18T04:02:49;4.85;;;4.35;;
75820;SDS011;64454;51.984;9.838;2023-09-18T04:05:15;5.60;;;5.00;;
75820;SDS011;64454;51.984;9.838;2023-09-18T04:07:43;6.63;;;4.90;;
75820;SDS011;64454;51.984;9.838;2023-09-18T04:10:11;5.32;;;4.55;;
75820;SDS011;64454;51.984;9.838;2023-09-18T04:12:44;4.93;;;4.43;;
75820;SDS011;64454;51.984;9.838;2023-09-18T04:15:14;6.00;;;4.60;;
75820;SDS011;64454;51.984;9.838;2023-09-18T04:17:42;6.95;;;4.50;;
75820;SDS011;64454;51.984;9.838;2023-09-18T04:20:10;6.60;;;5.00;;
75820;SDS011;64454;51.984;9.838;2023-09-18T04:22:42;5.00;;;4.50;;
75820;SDS011;64454;51.984;9.838;2023-09-18T04:25:10;7.05;;;4.68;;
75820;SDS011;64454;51.984;9.838;2023-09-18T04:27:38;5.53;;;4.70;;
75820;SDS011;64454;51.984;9.838;2023-09-18T04:30:06;5.40;;;4.90;;
75820;SDS011;64454;51.984;9.838;2023-09-18T04:32:37;6.50;;;4.57;;
75820;SDS011;64454;51.984;9.838;2023-09-18T04:35:05;7.85;;;5.22;;
75820;SDS011;64454;51.984;9.838;2023-09-18T04:37:37;5.65;;;4.45;;
75820;SDS011;64454;51.984;9.838;2023-09-18T04:40:05;4.82;;;4.43;;
75820;SDS011;64454;51.984;9.838;2023-09-18T04:42:36;5.90;;;5.00;;
75820;SDS011;64454;51.984;9.838;2023-09-18T04:45:05;5.97;;;5.10;;
75820;SDS011;64454;51.984;9.838;2023-09-18T04:47:33;5.28;;;4.78;;
75820;SDS011;64454;51.984;9.838;2023-09-18T04:50:02;5.85;;;4.93;;
75820;SDS011;64454;51.984;9.838;2023-09-18T04:52:30;4.78;;;4.38;;
75820;SDS011;64454;51.984;9.838;2023-09-18T04:54:57;5.38;;;4.78;;
75820;SDS011;64454;51.984;9.838;2023-09-18T04:57:24;5.20;;;4.70;;
75820;SDS011;64454;51.984;9.838;2023-09-18T04:59:51;4.93;;;4.50;;
75820;SDS011;64454;51.984;9.838;2023-09-18T05:02:18;4.90;;;4.40;;
75820;SDS011;64454;51.984;9.838;2023-09-18T05:04:45;7.30;;;5.00;;
75820;SDS011;64454;51.984;9.838;2023-09-18T05:07:13;5.00;;;4.50;;
75820;SDS011;64454;51.984;9.838;2023-09-18T05:09:40;5.15;;;4.65;;
75820;SDS011;64454;51.984;9.838;2023-09-18T05:12:08;6.50;;;4.90;;
75820;SDS011;64454;51.984;9.838;2023-09-18T05:14:38;5.70;;;4.90;;
75820;SDS011;64454;51.984;9.838;2023-09-18T05:17:06;5.55;;;4.90;;
75820;SDS011;64454;51.984;9.838;2023-09-18T05:19:36;5.40;;;4.70;;
75820;SDS011;64454;51.984;9.838;2023-09-18T05:22:04;5.40;;;4.63;;
75820;SDS011;64454;51.984;9.838;2023-09-18T05:24:32;4.53;;;4.05;;
75820;SDS011;64454;51.984;9.838;2023-09-18T05:27:00;4.80;;;4.38;;
75820;SDS011;64454;51.984;9.838;2023-09-18T05:29:27;5.60;;;4.90;;
75820;SDS011;64454;51.984;9.838;2023-09-18T05:31:55;5.50;;;5.00;;
75820;SDS011;64454;51.984;9.838;2023-09-18T05:34:21;5.25;;;4.40;;
75820;SDS011;64454;51.984;9.838;2023-09-18T05:36:48;4.70;;;4.20;;
75820;SDS011;64454;51.984;9.838;2023-09-18T05:39:16;4.82;;;4.30;;
75820;SDS011;64454;51.984;9.838;2023-09-18T05:41:46;5.18;;;4.68;;
75820;SDS011;64454;51.984;9.838;2023-09-18T05:44:14;5.10;;;4.60;;
75820;SDS011;64454;51.984;9.838;2023-09-18T05:46:43;4.60;;;4.20;;
75820;SDS011;64454;51.984;9.838;2023-09-18T05:49:11;5.40;;;4.55;;
75820;SDS011;64454;51.984;9.838;2023-09-18T05:51:38;5.40;;;4.28;;
75820;SDS011;64454;51.984;9.838;2023-09-18T05:54:05;4.90;;;4.30;;
75820;SDS011;64454;51.984;9.838;2023-09-18T05:56:33;4.70;;;4.30;;
75820;SDS011;64454;51.984;9.838;2023-09-18T05:59:01;4.47;;;4.07;;
75820;SDS011;64454;51.984;9.838;2023-09-18T06:01:28;5.13;;;4.63;;
75820;SDS011;64454;51.984;9.838;2023-09-18T06:03:55;4.60;;;4.20;;
75820;SDS011;64454;51.984;9.838;2023-09-18T06:06:22;5.40;;;4.90;;
75820;SDS011;64454;51.984;9.838;2023-09-18T06:08:50;5.18;;;4.20;;
75820;SDS011;64454;51.984;9.838;2023-09-18T06:11:18;5.93;;;4.80;;
75820;SDS011;64454;51.984;9.838;2023-09-18T06:13:45;5.53;;;4.93;;
75820;SDS011;64454;51.984;9.838;2023-09-18T06:16:13;5.60;;;4.43;;
75820;SDS011;64454;51.984;9.838;2023-09-18T06:18:40;4.75;;;4.35;;
75820;SDS011;64454;51.984;9.838;2023-09-18T06:21:08;5.32;;;4.38;;
75820;SDS011;64454;51.984;9.838;2023-09-18T06:23:35;5.50;;;4.70;;
75820;SDS011;64454;51.984;9.838;2023-09-18T06:26:02;5.40;;;4.68;;
75820;SDS011;64454;51.984;9.838;2023-09-18T06:28:29;5.40;;;4.30;;
75820;SDS011;64454;51.984;9.838;2023-09-18T06:30:56;5.32;;;4.80;;
75820;SDS011;64454;51.984;9.838;2023-09-18T06:33:24;5.32;;;4.80;;
75820;SDS011;64454;51.984;9.838;2023-09-18T06:35:52;4.65;;;4.25;;
75820;SDS011;64454;51.984;9.838;2023-09-18T06:38:19;5.20;;;4.30;;
75820;SDS011;64454;51.984;9.838;2023-09-18T06:40:46;4.87;;;4.37;;
75820;SDS011;64454;51.984;9.838;2023-09-18T06:43:13;4.93;;;4.38;;
75820;SDS011;64454;51.984;9.838;2023-09-18T06:45:40;5.47;;;4.97;;
75820;SDS011;64454;51.984;9.838;2023-09-18T06:48:07;4.82;;;4.32;;
75820;SDS011;64454;51.984;9.838;2023-09-18T06:50:35;5.20;;;4.47;;
75820;SDS011;64454;51.984;9.838;2023-09-18T06:53:03;4.67;;;4.27;;
75820;SDS011;64454;51.984;9.838;2023-09-18T06:55:30;4.90;;;4.40;;
75820;SDS011;64454;51.984;9.838;2023-09-18T06:57:57;5.13;;;4.60;;
75820;SDS011;64454;51.984;9.838;2023-09-18T07:00:24;4.88;;;4.38;;
75820;SDS011;64454;51.984;9.838;2023-09-18T07:02:51;5.05;;;4.60;;
75820;SDS011;64454;51.984;9.838;2023-09-18T07:05:18;5.40;;;4.90;;
75820;SDS011;64454;51.984;9.838;2023-09-18T07:07:46;5.35;;;4.40;;
75820;SDS011;64454;51.984;9.838;2023-09-18T07:10:13;5.40;;;4.70;;
75820;SDS011;64454;51.984;9.838;2023-09-18T07:12:40;5.70;;;4.20;;
75820;SDS011;64454;51.984;9.838;2023-09-18T07:15:07;5.20;;;4.63;;
75820;SDS011;64454;51.984;9.838;2023-09-18T07:17:35;5.10;;;4.60;;
75820;SDS011;64454;51.984;9.838;2023-09-18T07:20:02;5.90;;;5.30;;
75820;SDS011;64454;51.984;9.838;2023-09-18T07:22:38;5.20;;;4.70;;
75820;SDS011;64454;51.984;9.838;2023-09-18T07:25:07;6.00;;;4.85;;
75820;SDS011;64454;51.984;9.838;2023-09-18T07:27:34;4.80;;;4.40;;
75820;SDS011;64454;51.984;9.838;2023-09-18T07:30:04;4.38;;;3.97;;
75820;SDS011;64454;51.984;9.838;2023-09-18T07:32:32;5.37;;;4.87;;
75820;SDS011;64454;51.984;9.838;2023-09-18T07:34:59;5.10;;;4.30;;
75820;SDS011;64454;51.984;9.838;2023-09-18T07:37:26;6.75;;;4.80;;
75820;SDS011;64454;51.984;9.838;2023-09-18T07:39:53;6.75;;;4.40;;
75820;SDS011;64454;51.984;9.838;2023-09-18T07:42:24;4.78;;;4.30;;
75820;SDS011;64454;51.984;9.838;2023-09-18T07:44:52;5.63;;;4.10;;
75820;SDS011;64454;51.984;9.838;2023-09-18T07:47:19;4.65;;;4.00;;
75820;SDS011;64454;51.984;9.838;2023-09-18T07:49:47;5.57;;;4.03;;
75820;SDS011;64454;51.984;9.838;2023-09-18T07:52:14;4.60;;;4.10;;
75820;SDS011;64454;51.984;9.838;2023-09-18T07:54:41;4.70;;;4.00;;
75820;SDS011;64454;51.984;9.838;2023-09-18T07:57:09;8.10;;;4.00;;
75820;SDS011;64454;51.984;9.838;2023-09-18T07:59:38;4.97;;;3.90;;
75820;SDS011;64454;51.984;9.838;2023-09-18T08:02:05;4.80;;;3.80;;
75820;SDS011;64454;51.984;9.838;2023-09-18T08:04:34;6.70;;;3.90;;
75820;SDS011;64454;51.984;9.838;2023-09-18T08:07:01;5.22;;;4.07;;
75820;SDS011;64454;51.984;9.838;2023-09-18T08:09:30;6.30;;;4.00;;
75820;SDS011;64454;51.984;9.838;2023-09-18T08:12:01;8.18;;;4.50;;
75820;SDS011;64454;51.984;9.838;2023-09-18T08:14:28;6.05;;;4.20;;
75820;SDS011;64454;51.984;9.838;2023-09-18T08:16:57;7.35;;;3.88;;
75820;SDS011;64454;51.984;9.838;2023-09-18T08:19:25;6.35;;;3.92;;
75820;SDS011;64454;51.984;9.838;2023-09-18T08:21:52;5.32;;;4.18;;
75820;SDS011;64454;51.984;9.838;2023-09-18T08:24:21;5.03;;;3.80;;
75820;SDS011;64454;51.984;9.838;2023-09-18T08:26:48;6.13;;;4.30;;
75820;SDS011;64454;51.984;9.838;2023-09-18T08:29:16;5.30;;;3.90;;
75820;SDS011;64454;51.984;9.838;2023-09-18T08:31:44;6.03;;;3.88;;
75820;SDS011;64454;51.984;9.838;2023-09-18T08:34:13;6.05;;;3.85;;
75820;SDS011;64454;51.984;9.838;2023-09-18T08:36:42;5.80;;;3.78;;
75820;SDS011;64454;51.984;9.838;2023-09-18T08:39:10;6.32;;;3.78;;
75820;SDS011;64454;51.984;9.838;2023-09-18T08:41:38;7.27;;;3.90;;
75820;SDS011;64454;51.984;9.838;2023-09-18T08:44:08;7.47;;;4.10;;
75820;SDS011;64454;51.984;9.838;2023-09-18T08:46:36;4.80;;;3.30;;
75820;SDS011;64454;51.984;9.838;2023-09-18T08:49:04;6.25;;;3.90;;
75820;SDS011;64454;51.984;9.838;2023-09-18T08:51:34;7.40;;;4.00;;
75820;SDS011;64454;51.984;9.838;2023-09-18T08:54:03;5.97;;;4.32;;
75820;SDS011;64454;51.984;9.838;2023-09-18T08:56:32;7.15;;;4.20;;
75820;SDS011;64454;51.984;9.838;2023-09-18T08:59:00;6.47;;;3.90;;
75820;SDS011;64454;51.984;9.838;2023-09-18T09:01:27;7.18;;;3.60;;
75820;SDS011;64454;51.984;9.838;2023-09-18T09:03:54;5.32;;;3.30;;
75820;SDS011;64454;51.984;9.838;2023-09-18T09:06:21;6.60;;;3.47;;
75820;SDS011;64454;51.984;9.838;2023-09-18T09:08:49;6.93;;;3.45;;
75820;SDS011;64454;51.984;9.838;2023-09-18T09:11:16;4.78;;;3.47;;
75820;SDS011;64454;51.984;9.838;2023-09-18T09:13:44;6.30;;;3.42;;
75820;SDS011;64454;51.984;9.838;2023-09-18T09:16:12;9.18;;;3.45;;
75820;SDS011;64454;51.984;9.838;2023-09-18T09:18:46;4.40;;;3.10;;
75820;SDS011;64454;51.984;9.838;2023-09-18T09:21:15;8.80;;;3.72;;
75820;SDS011;64454;51.984;9.838;2023-09-18T09:23:45;6.10;;;3.50;;
75820;SDS011;64454;51.984;9.838;2023-09-18T09:26:18;4.85;;;3.20;;
75820;SDS011;64454;51.984;9.838;2023-09-18T09:28:47;6.63;;;3.10;;
75820;SDS011;64454;51.984;9.838;2023-09-18T09:31:22;6.90;;;2.93;;
75820;SDS011;64454;51.984;9.838;2023-09-18T09:33:52;5.10;;;3.40;;
75820;SDS011;64454;51.984;9.838;2023-09-18T09:36:21;8.27;;;3.25;;
75820;SDS011;64454;51.984;9.838;2023-09-18T09:38:49;9.23;;;3.00;;
75820;SDS011;64454;51.984;9.838;2023-09-18T09:41:24;6.18;;;3.08;;
75820;SDS011;64454;51.984;9.838;2023-09-18T09:43:52;8.98;;;2.88;;
75820;SDS011;64454;51.984;9.838;2023-09-18T09:46:21;8.60;;;2.90;;
75820;SDS011;64454;51.984;9.838;2023-09-18T09:49:00;9.70;;;2.70;;
75820;SDS011;64454;51.984;9.838;2023-09-18T09:51:28;5.90;;;2.60;;
75820;SDS011;64454;51.984;9.838;2023-09-18T09:53:56;5.53;;;3.03;;
75820;SDS011;64454;51.984;9.838;2023-09-18T09:59:11;4.30;;;2.45;;
75820;SDS011;64454;51.984;9.838;2023-09-18T10:01:41;7.47;;;2.80;;
75820;SDS011;64454;51.984;9.838;2023-09-18T10:04:10;4.32;;;2.50;;
75820;SDS011;64454;51.984;9.838;2023-09-18T10:06:43;6.25;;;2.60;;
75820;SDS011;64454;51.984;9.838;2023-09-18T10:09:19;9.98;;;3.15;;
75820;SDS011;64454;51.984;9.838;2023-09-18T10:11:51;6.70;;;2.30;;
75820;SDS011;64454;51.984;9.838;2023-09-18T10:14:23;4.10;;;2.60;;
75820;SDS011;64454;51.984;9.838;2023-09-18T10:16:59;4.93;;;2.60;;
75820;SDS011;64454;51.984;9.838;2023-09-18T10:19:44;4.53;;;2.70;;
75820;SDS011;64454;51.984;9.838;2023-09-18T10:22:21;5.72;;;2.90;;
75820;SDS011;64454;51.984;9.838;2023-09-18T10:25:08;6.10;;;2.70;;
75820;SDS011;64454;51.984;9.838;2023-09-18T10:27:41;5.45;;;2.20;;
75820;SDS011;64454;51.984;9.838;2023-09-18T10:30:13;8.18;;;2.42;;
75820;SDS011;64454;51.984;9.838;2023-09-18T10:32:43;5.82;;;2.30;;
75820;SDS011;64454;51.984;9.838;2023-09-18T10:35:13;5.80;;;2.75;;
75820;SDS011;64454;51.984;9.838;2023-09-18T10:37:41;6.80;;;2.40;;
75820;SDS011;64454;51.984;9.838;2023-09-18T10:40:08;5.47;;;2.30;;
75820;SDS011;64454;51.984;9.838;2023-09-18T10:42:37;5.45;;;2.00;;
75820;SDS011;64454;51.984;9.838;2023-09-18T10:45:09;8.55;;;3.03;;
75820;SDS011;64454;51.984;9.838;2023-09-18T10:47:38;4.95;;;2.30;;
75820;SDS011;64454;51.984;9.838;2023-09-18T10:50:08;7.20;;;2.47;;
75820;SDS011;64454;51.984;9.838;2023-09-18T10:52:35;7.00;;;2.88;;
75820;SDS011;64454;51.984;9.838;2023-09-18T10:55:10;4.32;;;2.70;;
75820;SDS011;64454;51.984;9.838;2023-09-18T10:57:49;7.00;;;3.40;;
75820;SDS011;64454;51.984;9.838;2023-09-18T11:00:18;5.22;;;2.55;;
75820;SDS011;64454;51.984;9.838;2023-09-18T11:02:51;5.80;;;2.20;;
75820;SDS011;64454;51.984;9.838;2023-09-18T11:05:31;8.85;;;2.80;;
75820;SDS011;64454;51.984;9.838;2023-09-18T11:10:57;5.20;;;2.50;;
75820;SDS011;64454;51.984;9.838;2023-09-18T11:13:29;6.03;;;2.43;;
75820;SDS011;64454;51.984;9.838;2023-09-18T11:16:02;5.93;;;2.40;;
75820;SDS011;64454;51.984;9.838;2023-09-18T11:18:45;4.10;;;2.40;;
75820;SDS011;64454;51.984;9.838;2023-09-18T11:21:17;6.47;;;2.30;;
75820;SDS011;64454;51.984;9.838;2023-09-18T11:23:57;6.45;;;2.40;;
75820;SDS011;64454;51.984;9.838;2023-09-18T11:26:28;4.38;;;2.13;;
75820;SDS011;64454;51.984;9.838;2023-09-18T11:28:58;5.00;;;2.30;;
75820;SDS011;64454;51.984;9.838;2023-09-18T11:31:43;6.20;;;2.60;;
75820;SDS011;64454;51.984;9.838;2023-09-18T11:34:15;5.80;;;2.22;;
75820;SDS011;64454;51.984;9.838;2023-09-18T11:36:47;6.35;;;2.38;;
75820;SDS011;64454;51.984;9.838;2023-09-18T11:39:35;3.97;;;2.10;;
75820;SDS011;64454;51.984;9.838;2023-09-18T11:42:07;3.03;;;2.03;;
75820;SDS011;64454;51.984;9.838;2023-09-18T11:44:36;6.83;;;2.97;;
75820;SDS011;64454;51.984;9.838;2023-09-18T11:47:09;6.40;;;2.30;;
75820;SDS011;64454;51.984;9.838;2023-09-18T11:49:41;2.80;;;2.40;;
75820;SDS011;64454;51.984;9.838;2023-09-18T11:52:15;5.13;;;2.80;;
75820;SDS011;64454;51.984;9.838;2023-09-18T11:54:43;7.70;;;2.80;;
75820;SDS011;64454;51.984;9.838;2023-09-18T11:57:12;5.93;;;2.40;;
75820;SDS011;64454;51.984;9.838;2023-09-18T11:59:40;7.05;;;2.75;;
75820;SDS011;64454;51.984;9.838;2023-09-18T12:02:10;4.70;;;2.60;;
75820;SDS011;64454;51.984;9.838;2023-09-18T12:04:45;5.82;;;2.20;;
75820;SDS011;64454;51.984;9.838;2023-09-18T12:07:13;3.90;;;2.10;;
75820;SDS011;64454;51.984;9.838;2023-09-18T12:09:40;5.50;;;2.25;;
75820;SDS011;64454;51.984;9.838;2023-09-18T12:12:07;6.47;;;2.30;;
75820;SDS011;64454;51.984;9.838;2023-09-18T12:14:35;3.20;;;2.00;;
75820;SDS011;64454;51.984;9.838;2023-09-18T12:17:04;3.87;;;1.80;;
75820;SDS011;64454;51.984;9.838;2023-09-18T12:19:34;3.38;;;2.00;;
75820;SDS011;64454;51.984;9.838;2023-09-18T12:22:01;4.57;;;2.00;;
75820;SDS011;64454;51.984;9.838;2023-09-18T12:24:29;5.63;;;1.70;;
75820;SDS011;64454;51.984;9.838;2023-09-18T12:26:56;6.27;;;2.30;;
75820;SDS011;64454;51.984;9.838;2023-09-18T12:29:25;4.30;;;1.90;;
75820;SDS011;64454;51.984;9.838;2023-09-18T12:31:52;5.30;;;2.30;;
75820;SDS011;64454;51.984;9.838;2023-09-18T12:34:20;4.20;;;1.90;;
75820;SDS011;64454;51.984;9.838;2023-09-18T12:36:49;5.03;;;1.80;;
75820;SDS011;64454;51.984;9.838;2023-09-18T12:39:17;2.67;;;1.75;;
75820;SDS011;64454;51.984;9.838;2023-09-18T12:41:47;4.57;;;2.08;;
75820;SDS011;64454;51.984;9.838;2023-09-18T12:44:15;7.30;;;2.20;;
75820;SDS011;64454;51.984;9.838;2023-09-18T12:46:45;3.70;;;2.20;;
75820;SDS011;64454;51.984;9.838;2023-09-18T12:49:15;4.60;;;1.65;;
75820;SDS011;64454;51.984;9.838;2023-09-18T12:51:59;3.67;;;1.80;;
75820;SDS011;64454;51.984;9.838;2023-09-18T12:54:38;2.50;;;1.90;;
75820;SDS011;64454;51.984;9.838;2023-09-18T12:57:06;4.88;;;2.20;;
75820;SDS011;64454;51.984;9.838;2023-09-18T12:59:36;2.97;;;1.80;;
75820;SDS011;64454;51.984;9.838;2023-09-18T13:02:04;5.88;;;2.60;;
75820;SDS011;64454;51.984;9.838;2023-09-18T13:04:32;4.22;;;2.38;;
75820;SDS011;64454;51.984;9.838;2023-09-18T13:07:09;4.20;;;1.83;;
75820;SDS011;64454;51.984;9.838;2023-09-18T13:09:37;4.33;;;2.07;;
75820;SDS011;64454;51.984;9.838;2023-09-18T13:12:05;5.05;;;2.10;;
75820;SDS011;64454;51.984;9.838;2023-09-18T13:17:28;5.75;;;2.50;;
75820;SDS011;64454;51.984;9.838;2023-09-18T13:20:11;4.90;;;2.20;;
75820;SDS011;64454;51.984;9.838;2023-09-18T13:22:47;3.60;;;2.10;;
75820;SDS011;64454;51.984;9.838;2023-09-18T13:25:19;3.13;;;1.90;;
75820;SDS011;64454;51.984;9.838;2023-09-18T13:27:47;5.13;;;1.97;;
75820;SDS011;64454;51.984;9.838;2023-09-18T13:30:14;2.88;;;1.70;;
75820;SDS011;64454;51.984;9.838;2023-09-18T13:32:43;3.97;;;2.17;;
75820;SDS011;64454;51.984;9.838;2023-09-18T13:35:11;4.25;;;1.70;;
75820;SDS011;64454;51.984;9.838;2023-09-18T13:37:39;4.10;;;2.13;;
75820;SDS011;64454;51.984;9.838;2023-09-18T13:40:08;2.83;;;1.90;;
75820;SDS011;64454;51.984;9.838;2023-09-18T13:42:37;3.83;;;2.22;;
75820;SDS011;64454;51.984;9.838;2023-09-18T13:45:05;2.50;;;1.50;;
75820;SDS011;64454;51.984;9.838;2023-09-18T13:47:34;3.17;;;1.70;;
75820;SDS011;64454;51.984;9.838;2023-09-18T13:50:02;3.38;;;1.83;;
75820;SDS011;64454;51.984;9.838;2023-09-18T13:52:31;2.90;;;1.80;;
75820;SDS011;64454;51.984;9.838;2023-09-18T13:55:00;3.60;;;2.10;;
75820;SDS011;64454;51.984;9.838;2023-09-18T13:57:31;5.68;;;2.25;;
75820;SDS011;64454;51.984;9.838;2023-09-18T13:59:59;4.32;;;1.90;;
75820;SDS011;64454;51.984;9.838;2023-09-18T14:02:30;3.28;;;2.03;;
75820;SDS011;64454;51.984;9.838;2023-09-18T14:04:57;3.00;;;2.10;;
75820;SDS011;64454;51.984;9.838;2023-09-18T14:07:24;2.53;;;1.60;;
75820;SDS011;64454;51.984;9.838;2023-09-18T14:09:51;2.63;;;1.90;;
75820;SDS011;64454;51.984;9.838;2023-09-18T14:12:18;3.00;;;1.63;;
75820;SDS011;64454;51.984;9.838;2023-09-18T14:14:47;3.80;;;2.00;;
75820;SDS011;64454;51.984;9.838;2023-09-18T14:17:13;4.50;;;1.90;;
75820;SDS011;64454;51.984;9.838;2023-09-18T14:19:42;6.13;;;2.30;;
75820;SDS011;64454;51.984;9.838;2023-09-18T14:22:10;2.60;;;1.70;;
75820;SDS011;64454;51.984;9.838;2023-09-18T14:24:36;4.90;;;1.80;;
75820;SDS011;64454;51.984;9.838;2023-09-18T14:27:04;3.28;;;2.00;;
75820;SDS011;64454;51.984;9.838;2023-09-18T14:29:31;3.97;;;1.70;;
75820;SDS011;64454;51.984;9.838;2023-09-18T14:32:00;3.17;;;2.00;;
75820;SDS011;64454;51.984;9.838;2023-09-18T14:34:28;2.97;;;2.10;;
75820;SDS011;64454;51.984;9.838;2023-09-18T14:36:55;3.07;;;1.60;;
75820;SDS011;64454;51.984;9.838;2023-09-18T14:39:23;4.78;;;1.90;;
75820;SDS011;64454;51.984;9.838;2023-09-18T14:41:51;5.70;;;2.10;;
75820;SDS011;64454;51.984;9.838;2023-09-18T14:44:19;7.05;;;2.45;;
75820;SDS011;64454;51.984;9.838;2023-09-18T14:46:47;4.15;;;1.60;;
75820;SDS011;64454;51.984;9.838;2023-09-18T14:49:16;3.22;;;1.70;;
75820;SDS011;64454;51.984;9.838;2023-09-18T14:51:46;4.43;;;1.98;;
75820;SDS011;64454;51.984;9.838;2023-09-18T14:54:15;2.30;;;1.33;;
75820;SDS011;64454;51.984;9.838;2023-09-18T14:56:44;2.28;;;1.52;;
75820;SDS011;64454;51.984;9.838;2023-09-18T14:59:12;5.25;;;1.85;;
75820;SDS011;64454;51.984;9.838;2023-09-18T15:01:40;3.03;;;1.98;;
75820;SDS011;64454;51.984;9.838;2023-09-18T15:04:08;3.50;;;1.88;;
75820;SDS011;64454;51.984;9.838;2023-09-18T15:06:37;3.35;;;1.85;;
75820;SDS011;64454;51.984;9.838;2023-09-18T15:09:04;2.30;;;1.73;;